Meridian, ID

1:07 AM MDT on September 03, 2014 (GMT -0600)
Primrose Subdivision | Change Station
CLOSE
Current Station
Personal Weather Station
Location: Meridian, ID
Elevation: 2598 ft
Nearby Weather Stations

Elev 2598 ft 43.60 °N, 116.42 °W | Updated 8 minutes ago

Clear
Clear
64.4 °F
Feels Like 64.4 °F
N
4.0
Wind Variable Wind from West

Today
High -- | Low -- °F
--% Chance of Precip.
Yesterday
High -- | Low -- °F
Precip. -- in
7:11 AM 8:17 PM
First Quarter, 59% visible
Pressure 29.72 in
Visibility 10.0 miles
Clouds Clear
Dew Point 45 °F
Humidity 49%
Rainfall 0.00 in
Snow Depth Not available.
UV 0 out of 12
Pollen 7.60 out of 12
PM2.5 Moderate
Flu Activity Not available.
METAR KMAN 030655Z AUTO 29007KT 10SM CLR 19/05 A2972 RMK AO1

More Conditions Fewer Conditions

Pressure 29.72 in
Visibility 10.0 miles
Clouds Clear
Dew Point 45 °F
Humidity 49%
Rainfall 0.00 in
Snow Depth Not available.
UV 0 out of 12
Pollen 7.60 out of 12
PM2.5 Moderate
Flu Activity Not available.
METAR KMAN 030655Z AUTO 29007KT 10SM CLR 19/05 A2972 RMK AO1

More Conditions Fewer Conditions

10-Day Weather Forecast

Almanac

Astronomy

Sep. 03, 2014 Rise Set
Actual Time 7:11 AM MDT 8:17 PM MDT
Civil Twilight 6:42 AM MDT 8:46 PM MDT
Nautical Twilight 6:07 AM MDT 9:21 PM MDT
Astronomical Twilight 5:30 AM MDT 9:58 PM MDT
Moon 4:09 PM MDT 1:03 AM MDT
Length of Visible Light 14h 04m
Length of Day
13h 05m
Tomorrow will be 2m 54s shorter.
First Quarter, 59% of the Moon is Illuminated
Today
First Quarter
Sep 8
Full
Sep 15
Last Quarter
Sep 24
New
Oct 1
First Quarter

Today's Extremes

State Highs State Lows

Community

WunderPhotos

Upload Photos

1,749,888 photos uploaded!

Nearby

Air Quality

  Air Quality AQ Index Pollutant
Yesterday Good
OZONE
Yesterday Good
PM10
Current Moderate
PM2.5
Tuesday Good
OZONE
Wednesday Good
OZONE
Thursday Good
OZONE

Snow Depth

Station Depth Elevation
Bogus Basin 0 in 6340 ft
Trinity Mountain 0 in 7770 ft
Jackson Peak 1 in 7070 ft
Camas Creek Divide 0 in 5710 ft
Atlanta Summit 0 in 7580 ft

Earthquake Activity

City Distance Mag. Time & Date
No recent earthquake activity has been reported nearby.
Minimum magnitude displayed is 2.5.

Coastal Water Temperatures

Place Temperature
No Stations Reporting

Nearby Weather Stations